createdAt,value
2023-02-24T00:01:03.827Z,99511.89
2023-02-24T00:03:38.348Z,99509.29
2023-02-24T00:06:12.146Z,99511.89
2023-02-24T00:08:44.310Z,99508.50
2023-02-24T00:11:19.230Z,99493.22
2023-02-24T00:13:51.649Z,99489.81
2023-02-24T00:16:25.680Z,99488.97
2023-02-24T00:18:57.936Z,99500.00
2023-02-24T00:21:30.270Z,99486.33
2023-02-24T00:24:02.259Z,99482.09
2023-02-24T00:26:34.564Z,99481.27
2023-02-24T00:29:09.267Z,99471.04
2023-02-24T00:31:43.890Z,99475.28
2023-02-24T00:34:16.171Z,99474.45
2023-02-24T00:36:49.752Z,99459.12
2023-02-24T00:39:22.624Z,99458.27
2023-02-24T00:41:56.492Z,99454.08
2023-02-24T00:44:29.958Z,99454.91
2023-02-24T00:47:05.102Z,99444.67
2023-02-24T00:49:43.131Z,99443.85
2023-02-24T00:52:21.471Z,99437.89
2023-02-24T00:54:53.607Z,99435.30
2023-02-24T00:57:25.666Z,99428.50
2023-02-24T00:59:59.097Z,99424.23
2023-02-24T01:02:32.568Z,99415.77
2023-02-24T01:05:04.420Z,99412.37
2023-02-24T01:07:37.067Z,99412.39
2023-02-24T01:10:10.951Z,99406.44
2023-02-24T01:12:51.031Z,99403.05
2023-02-24T01:15:24.098Z,99401.34
2023-02-24T01:17:56.143Z,99398.77
2023-02-24T01:20:29.687Z,99389.39
2023-02-24T01:23:03.705Z,99385.11
2023-02-24T01:25:35.983Z,99372.36
2023-02-24T01:28:09.563Z,99381.73
2023-02-24T01:30:43.164Z,99367.22
2023-02-24T01:33:17.494Z,99370.64
2023-02-24T01:35:49.477Z,99369.00
2023-02-24T01:38:23.285Z,99369.80
2023-02-24T01:41:00.423Z,99360.45
2023-02-24T01:43:33.888Z,99356.18
2023-02-24T01:46:06.253Z,99358.71
2023-02-24T01:48:38.687Z,99349.36
2023-02-24T01:51:12.489Z,99342.52
2023-02-24T01:53:46.706Z,99333.15
2023-02-24T01:56:19.092Z,99327.16
2023-02-24T01:58:50.984Z,99324.65
2023-02-24T02:01:23.951Z,99330.58
2023-02-24T02:03:58.337Z,99322.01
2023-02-24T02:06:31.872Z,99317.79
2023-02-24T02:09:04.685Z,99314.33
2023-02-24T02:11:37.231Z,99311.78
2023-02-24T02:14:10.710Z,99310.90
2023-02-24T02:16:45.798Z,99315.95
2023-02-24T02:19:39.829Z,99314.24
2023-02-24T02:22:29.436Z,99307.39
2023-02-24T02:25:29.685Z,99294.63
2023-02-24T02:28:37.363Z,99295.47
2023-02-24T02:31:47.054Z,99285.27
2023-02-24T02:34:22.694Z,99274.19
2023-02-24T02:37:15.480Z,99270.79
2023-02-24T02:40:02.531Z,99263.98
2023-02-24T02:42:46.070Z,99262.31
2023-02-24T02:45:37.216Z,99262.30
2023-02-24T02:48:15.496Z,99252.13
2023-02-24T02:50:50.787Z,99247.03
2023-02-24T02:53:31.579Z,99243.67
2023-02-24T02:56:06.952Z,99240.27
2023-02-24T02:58:42.262Z,99227.51
2023-02-24T03:01:18.947Z,99220.70
2023-02-24T03:03:54.644Z,99208.80
2023-02-24T03:06:29.696Z,99206.23
2023-02-24T03:09:09.073Z,99201.13
2023-02-24T03:11:42.689Z,99191.75
2023-02-24T03:14:18.649Z,99179.83
2023-02-24T03:16:53.366Z,99172.16
2023-02-24T03:19:32.212Z,99173.01
2023-02-24T03:22:07.125Z,99176.42
2023-02-24T03:24:40.019Z,99169.58
2023-02-24T03:27:21.403Z,99153.41
2023-02-24T03:30:00.342Z,99156.84
2023-02-24T03:32:36.837Z,99152.59
2023-02-24T03:35:18.196Z,99145.77
2023-02-24T03:37:51.295Z,99131.30
2023-02-24T03:40:25.194Z,99127.03
2023-02-24T03:43:07.659Z,99119.38
2023-02-24T03:45:42.136Z,99117.67
2023-02-24T03:48:14.893Z,99107.45
2023-02-24T03:50:49.608Z,99103.21
2023-02-24T03:53:30.572Z,99092.13
2023-02-24T03:56:22.713Z,99087.03
2023-02-24T03:59:28.760Z,99083.63
2023-02-24T04:02:18.799Z,99080.22
2023-02-24T04:04:58.524Z,99083.63
2023-02-24T04:07:48.125Z,99073.41
2023-02-24T04:10:32.196Z,99075.95
2023-02-24T04:13:18.811Z,99064.90
2023-02-24T04:15:56.240Z,99053.81
2023-02-24T04:18:31.746Z,99064.89
2023-02-24T04:21:06.114Z,99050.42
2023-02-24T04:23:42.162Z,99052.11
2023-02-24T04:26:17.281Z,99044.44
2023-02-24T04:28:49.824Z,99037.64
2023-02-24T04:31:24.455Z,99032.53
2023-02-24T04:33:57.391Z,99032.53
2023-02-24T04:36:31.320Z,99019.73
2023-02-24T04:39:05.354Z,99040.19
2023-02-24T04:41:37.817Z,99036.80
2023-02-24T04:44:10.161Z,99029.12
2023-02-24T04:46:42.276Z,99025.71
2023-02-24T04:49:14.562Z,99033.39
2023-02-24T04:51:47.510Z,99029.05
2023-02-24T04:54:21.864Z,99023.95
2023-02-24T04:56:54.616Z,99024.80
2023-02-24T04:59:28.055Z,99022.24
2023-02-24T05:02:01.893Z,99017.97
2023-02-24T05:04:36.312Z,99007.70
2023-02-24T05:07:08.095Z,99002.55
2023-02-24T05:09:41.363Z,99003.42
2023-02-24T05:12:13.460Z,99004.28
2023-02-24T05:14:45.684Z,99000.86
2023-02-24T05:17:18.849Z,98995.71
2023-02-24T05:20:08.538Z,98972.70
2023-02-24T05:22:40.868Z,98959.86
2023-02-24T05:25:14.600Z,98970.04
2023-02-24T05:27:47.436Z,98965.78
2023-02-24T05:30:20.082Z,98970.85
2023-02-24T05:32:53.786Z,98968.28
2023-02-24T05:35:26.797Z,98957.19
2023-02-24T05:37:59.341Z,98952.88
2023-02-24T05:40:31.583Z,98958.78
2023-02-24T05:43:05.502Z,98956.16
2023-02-24T05:45:37.176Z,98950.22
2023-02-24T05:48:09.268Z,98951.83
2023-02-24T05:50:43.744Z,98950.95
2023-02-24T05:53:16.127Z,98951.81
2023-02-24T05:55:48.594Z,98936.47
2023-02-24T05:58:20.808Z,98938.17
2023-02-24T06:00:52.885Z,98928.81
2023-02-24T06:03:26.692Z,98922.80
2023-02-24T06:06:06.888Z,98917.67
2023-02-24T06:08:43.622Z,98912.56
2023-02-24T06:11:17.259Z,98912.55
2023-02-24T06:13:49.459Z,98907.44
2023-02-24T06:16:21.591Z,98904.89
2023-02-24T06:18:55.722Z,98906.61
2023-02-24T06:21:29.536Z,98902.30
2023-02-24T06:24:01.648Z,98888.63
2023-02-24T06:26:36.653Z,98894.55
2023-02-24T06:29:08.784Z,98893.67
2023-02-24T06:31:41.791Z,98890.28
2023-02-24T06:34:14.767Z,98898.77
2023-02-24T06:36:48.485Z,98879.16
2023-02-24T06:39:20.245Z,98880.05
2023-02-24T06:41:53.053Z,98876.51
2023-02-24T06:44:25.906Z,98871.47
2023-02-24T06:46:58.397Z,98860.36
2023-02-24T06:49:31.740Z,98859.54
2023-02-24T06:52:03.926Z,98853.58
2023-02-24T06:54:36.415Z,98850.20
2023-02-24T06:57:10.039Z,98856.94
2023-02-24T06:59:42.568Z,98850.09
2023-02-24T07:02:14.922Z,98836.41
2023-02-24T07:04:47.907Z,98823.52
2023-02-24T07:07:20.235Z,98826.13
2023-02-24T07:09:52.627Z,98815.02
2023-02-24T07:12:25.041Z,98811.59
2023-02-24T07:14:57.317Z,98812.44
2023-02-24T07:17:29.757Z,98810.66
2023-02-24T07:20:03.445Z,98804.66
2023-02-24T07:22:35.412Z,98806.34
2023-02-24T07:25:08.110Z,98801.16
2023-02-24T07:27:40.629Z,98790.02
2023-02-24T07:30:14.117Z,98793.38
2023-02-24T07:32:48.005Z,98797.66
2023-02-24T07:35:20.330Z,98783.95
2023-02-24T07:37:52.968Z,98789.05
2023-02-24T07:40:25.792Z,98786.44
2023-02-24T07:42:58.061Z,98784.66
2023-02-24T07:45:31.276Z,98777.75
2023-02-24T07:48:03.295Z,98781.92
2023-02-24T07:50:38.032Z,98781.83
2023-02-24T07:53:10.291Z,98772.44
2023-02-24T07:55:43.064Z,98768.94
2023-02-24T07:58:15.274Z,98770.68
2023-02-24T08:00:52.347Z,98762.94
2023-02-24T08:03:24.531Z,98766.31
2023-02-24T08:06:03.484Z,98759.29
2023-02-24T08:08:36.965Z,98749.03
2023-02-24T08:11:10.680Z,98747.22
2023-02-24T08:13:42.563Z,98744.56
2023-02-24T08:16:14.740Z,98750.52
2023-02-24T08:18:49.498Z,98745.36
2023-02-24T08:21:27.090Z,98750.41
2023-02-24T08:24:00.859Z,98731.49
2023-02-24T08:26:34.861Z,98737.59
2023-02-24T08:29:07.555Z,98739.30
2023-02-24T08:31:43.435Z,98728.97
2023-02-24T08:34:16.518Z,98723.66
2023-02-24T08:36:50.237Z,98725.87
2023-02-24T08:39:22.793Z,98729.20
2023-02-24T08:41:55.398Z,98728.32
2023-02-24T08:44:28.112Z,98724.02
2023-02-24T08:47:03.933Z,98726.56
2023-02-24T08:49:38.170Z,98723.02
2023-02-24T08:52:09.876Z,98721.21
2023-02-24T08:54:43.791Z,98723.45
2023-02-24T08:57:17.476Z,98722.45
2023-02-24T08:59:53.906Z,98714.73
2023-02-24T09:02:30.001Z,98712.95
2023-02-24T09:05:14.195Z,98708.59
2023-02-24T09:07:45.137Z,98702.59
2023-02-24T09:10:19.807Z,98712.69
2023-02-24T09:12:54.129Z,98711.64
2023-02-24T09:15:25.742Z,98708.19
2023-02-24T09:18:00.032Z,98711.50
2023-02-24T09:20:51.225Z,98693.67
2023-02-24T09:23:25.279Z,98694.53
2023-02-24T09:25:57.375Z,98692.93
2023-02-24T09:28:31.627Z,98688.45
2023-02-24T09:31:05.150Z,98685.16
2023-02-24T09:33:42.545Z,98685.08
2023-02-24T09:36:19.010Z,98681.68
2023-02-24T09:39:01.686Z,98678.97
2023-02-24T09:42:00.006Z,98669.43
2023-02-24T09:44:48.600Z,98671.73
2023-02-24T09:47:43.549Z,98666.33
2023-02-24T09:50:28.678Z,98665.50
2023-02-24T09:53:10.875Z,98659.16
2023-02-24T09:56:04.164Z,98656.53
2023-02-24T09:58:43.950Z,98650.34
2023-02-24T10:01:36.188Z,98644.21
2023-02-24T10:04:34.171Z,98634.64
2023-02-24T10:07:12.560Z,98636.20
2023-02-24T10:09:56.245Z,98627.39
2023-02-24T10:12:36.312Z,98616.20
2023-02-24T10:15:20.096Z,98610.12
2023-02-24T10:17:56.729Z,98614.21
2023-02-24T10:20:40.513Z,98606.48
2023-02-24T10:23:32.117Z,98605.63
2023-02-24T10:26:32.025Z,98598.63
2023-02-24T10:29:11.968Z,98595.02
2023-02-24T10:31:48.420Z,98593.16
2023-02-24T10:34:24.118Z,98584.53
2023-02-24T10:36:57.882Z,98587.75
2023-02-24T10:39:33.122Z,98582.27
2023-02-24T10:42:16.265Z,98579.44
2023-02-24T10:45:02.499Z,98577.67
2023-02-24T10:47:32.197Z,98574.98
2023-02-24T10:50:08.187Z,98568.97
2023-02-24T10:52:59.937Z,98566.28
2023-02-24T10:55:42.043Z,98559.26
2023-02-24T10:58:36.874Z,98557.50
2023-02-24T11:01:17.012Z,98549.77
2023-02-24T11:04:04.626Z,98557.19
2023-02-24T11:06:44.770Z,98558.44
2023-02-24T11:09:30.161Z,98554.22
2023-02-24T11:12:25.774Z,98549.92
2023-02-24T11:15:18.990Z,98548.25
2023-02-24T11:18:00.292Z,98549.84
2023-02-24T11:20:47.853Z,98549.77
2023-02-24T11:23:12.933Z,98550.75
2023-02-24T11:25:48.098Z,98545.55
2023-02-24T11:28:40.845Z,98544.89
2023-02-24T11:31:36.960Z,98539.70
2023-02-24T11:34:25.333Z,98533.64
2023-02-24T11:37:02.819Z,98523.37
2023-02-24T11:39:53.803Z,98514.70
2023-02-24T11:42:37.302Z,98519.00
2023-02-24T11:45:34.832Z,98510.30
2023-02-24T11:48:16.276Z,98512.09
2023-02-24T11:51:18.821Z,98504.41
2023-02-24T11:53:56.768Z,98506.98
2023-02-24T11:56:38.150Z,98500.19
2023-02-24T11:59:25.686Z,98502.80
2023-02-24T12:02:08.596Z,98498.51
2023-02-24T12:05:03.966Z,98512.29
2023-02-24T12:07:43.226Z,98503.04
2023-02-24T12:10:33.364Z,98499.80
2023-02-24T12:13:17.284Z,98497.22
2023-02-24T12:16:09.664Z,98485.17
2023-02-24T12:18:45.373Z,98479.94
2023-02-24T12:21:24.711Z,98471.34
2023-02-24T12:23:59.137Z,98476.50
2023-02-24T12:26:55.962Z,98467.05
2023-02-24T12:29:33.277Z,98471.23
2023-02-24T12:32:21.772Z,98463.54
2023-02-24T12:35:17.919Z,98466.20
2023-02-24T12:37:55.613Z,98464.67
2023-02-24T12:40:38.477Z,98462.27
2023-02-24T12:43:29.635Z,98466.70
2023-02-24T12:46:11.392Z,98462.49
2023-02-24T12:49:09.586Z,98453.20
2023-02-24T12:52:10.575Z,98462.69
2023-02-24T12:54:58.154Z,98455.97
2023-02-24T12:57:51.161Z,98463.93
2023-02-24T13:00:29.894Z,98459.05
2023-02-24T13:03:20.965Z,98454.16
2023-02-24T13:05:56.270Z,98457.78
2023-02-24T13:08:53.590Z,98447.56
2023-02-24T13:11:47.524Z,98448.41
2023-02-24T13:14:35.381Z,98441.62
2023-02-24T13:17:17.810Z,98437.19
2023-02-24T13:19:53.954Z,98438.09
2023-02-24T13:22:32.441Z,98435.47
2023-02-24T13:25:16.178Z,98432.08
2023-02-24T13:27:57.983Z,98432.08
2023-02-24T13:30:33.096Z,98435.52
2023-02-24T13:33:20.365Z,98431.22
2023-02-24T13:35:57.484Z,98424.40
2023-02-24T13:38:39.133Z,98421.90
2023-02-24T13:41:29.624Z,98414.22
2023-02-24T13:44:05.059Z,98420.19
2023-02-24T13:46:52.604Z,98423.80
2023-02-24T13:49:33.514Z,98415.19
2023-02-24T13:52:08.424Z,98422.09
2023-02-24T13:54:43.406Z,98406.83
2023-02-24T13:57:40.977Z,98403.55
2023-02-24T14:00:22.137Z,98402.77
2023-02-24T14:02:54.586Z,98402.77
2023-02-24T14:05:29.740Z,98394.13
2023-02-24T14:08:02.794Z,98394.16
2023-02-24T14:10:37.830Z,98393.34
2023-02-24T14:13:21.560Z,98390.73
2023-02-24T14:15:53.736Z,98390.73
2023-02-24T14:18:28.893Z,98395.05
2023-02-24T14:21:01.510Z,98398.48
2023-02-24T14:23:36.956Z,98394.94
2023-02-24T14:26:12.241Z,98393.16
2023-02-24T14:28:44.275Z,98394.91
2023-02-24T14:31:18.170Z,98387.30
2023-02-24T14:33:53.438Z,98386.52
2023-02-24T14:36:28.618Z,98383.13
2023-02-24T14:39:30.806Z,98383.20
2023-02-24T14:42:16.559Z,98385.84
2023-02-24T14:44:54.198Z,98390.20
2023-02-24T14:47:28.944Z,98392.81
2023-02-24T14:50:03.579Z,98388.45
2023-02-24T14:52:51.388Z,98386.84
2023-02-24T14:55:32.682Z,98390.23
2023-02-24T14:58:17.683Z,98394.52
2023-02-24T15:01:04.493Z,98391.02
2023-02-24T15:03:42.813Z,98394.52
2023-02-24T15:06:18.313Z,98392.77
2023-02-24T15:08:54.142Z,98390.16
2023-02-24T15:11:29.721Z,98390.20
2023-02-24T15:14:10.644Z,98392.66
2023-02-24T15:16:45.016Z,98396.12
2023-02-24T15:19:36.592Z,98395.27
2023-02-24T15:22:23.661Z,98391.98
2023-02-24T15:24:58.628Z,98391.13
2023-02-24T15:27:30.668Z,98392.91
2023-02-24T15:30:08.691Z,98389.45
2023-02-24T15:32:41.424Z,98386.91
2023-02-24T15:35:16.405Z,98392.91
2023-02-24T15:37:49.941Z,98392.91
2023-02-24T15:40:24.854Z,98387.81
2023-02-24T15:43:12.282Z,98378.31
2023-02-24T15:45:44.701Z,98385.05
2023-02-24T15:48:22.723Z,98382.52
2023-02-24T15:50:55.637Z,98381.59
2023-02-24T15:53:27.868Z,98390.13
2023-02-24T15:56:00.244Z,98380.77
2023-02-24T15:58:33.283Z,98377.30
2023-02-24T16:01:08.209Z,98381.48
2023-02-24T16:03:41.191Z,98378.91
2023-02-24T16:06:23.953Z,98377.08
2023-02-24T16:08:57.504Z,98375.33
2023-02-24T16:11:32.434Z,98373.66
2023-02-24T16:14:04.377Z,98368.55
2023-02-24T16:16:36.430Z,98365.12
2023-02-24T16:19:08.982Z,98367.61
2023-02-24T16:21:41.468Z,98365.08
2023-02-24T16:24:13.412Z,98359.94
2023-02-24T16:26:45.273Z,98360.64
2023-02-24T16:29:17.642Z,98356.31
2023-02-24T16:31:50.112Z,98355.42
2023-02-24T16:34:22.492Z,98354.61
2023-02-24T16:36:55.285Z,98358.89
2023-02-24T16:39:27.591Z,98348.56
2023-02-24T16:42:00.075Z,98346.84
2023-02-24T16:44:32.344Z,98342.48
2023-02-24T16:47:05.282Z,98341.51
2023-02-24T16:49:37.612Z,98332.98
2023-02-24T16:52:09.747Z,98337.22
2023-02-24T16:54:42.864Z,98336.41
2023-02-24T16:57:15.394Z,98338.90
2023-02-24T16:59:47.447Z,98327.71
2023-02-24T17:02:22.313Z,98319.17
2023-02-24T17:04:54.433Z,98319.99
2023-02-24T17:07:26.619Z,98327.55
2023-02-24T17:09:59.034Z,98324.16
2023-02-24T17:12:32.927Z,98315.47
2023-02-24T17:15:05.060Z,98307.70
2023-02-24T17:17:37.723Z,98311.88
2023-02-24T17:20:12.998Z,98309.34
2023-02-24T17:22:46.036Z,98304.08
2023-02-24T17:25:23.910Z,98308.98
2023-02-24T17:27:57.142Z,98313.23
2023-02-24T17:30:33.518Z,98301.37
2023-02-24T17:33:05.646Z,98299.75
2023-02-24T17:35:38.025Z,98292.06
2023-02-24T17:38:15.213Z,98288.64
2023-02-24T17:40:47.857Z,98292.03
2023-02-24T17:43:20.282Z,98288.59
2023-02-24T17:45:53.296Z,98293.75
2023-02-24T17:48:25.610Z,98288.59
2023-02-24T17:50:57.872Z,98276.63
2023-02-24T17:53:31.309Z,98271.39
2023-02-24T17:56:08.216Z,98277.28
2023-02-24T17:58:41.990Z,98273.72
2023-02-24T18:01:13.973Z,98266.90
2023-02-24T18:03:46.203Z,98261.66
2023-02-24T18:06:18.417Z,98261.66
2023-02-24T18:08:50.457Z,98264.16
2023-02-24T18:11:22.721Z,98256.52
2023-02-24T18:13:56.297Z,98257.30
2023-02-24T18:16:28.640Z,98263.30
2023-02-24T18:19:00.923Z,98252.15
2023-02-24T18:21:33.278Z,98254.72
2023-02-24T18:24:05.587Z,98249.63
2023-02-24T18:26:37.970Z,98245.33
2023-02-24T18:29:10.490Z,98252.15
2023-02-24T18:31:42.850Z,98244.42
2023-02-24T18:34:14.993Z,98244.38
2023-02-24T18:36:47.334Z,98243.48
2023-02-24T18:39:19.410Z,98236.62
2023-02-24T18:41:52.144Z,98235.63
2023-02-24T18:44:24.532Z,98230.39
2023-02-24T18:46:56.814Z,98229.54
2023-02-24T18:49:29.119Z,98222.72
2023-02-24T18:52:01.695Z,98218.98
2023-02-24T18:54:34.898Z,98219.88
2023-02-24T18:57:07.019Z,98210.44
2023-02-24T18:59:39.117Z,98206.96
2023-02-24T19:02:11.805Z,98203.39
2023-02-24T19:04:46.148Z,98204.22
2023-02-24T19:07:18.409Z,98195.63
2023-02-24T19:09:51.280Z,98190.47
2023-02-24T19:12:24.272Z,98198.08
2023-02-24T19:14:56.380Z,98185.20
2023-02-24T19:17:32.521Z,98186.86
2023-02-24T19:20:04.560Z,98172.23
2023-02-24T19:22:36.504Z,98179.05
2023-02-24T19:25:08.694Z,98164.41
2023-02-24T19:27:40.822Z,98171.23
2023-02-24T19:30:13.271Z,98172.09
2023-02-24T19:32:45.377Z,98166.03
2023-02-24T19:35:17.603Z,98162.61
2023-02-24T19:37:50.358Z,98159.11
2023-02-24T19:40:23.683Z,98157.36
2023-02-24T19:42:55.874Z,98166.76
2023-02-24T19:45:27.910Z,98158.08
2023-02-24T19:47:59.829Z,98162.41
2023-02-24T19:50:32.275Z,98158.94
2023-02-24T19:53:04.416Z,98147.73
2023-02-24T19:55:36.436Z,98151.93
2023-02-24T19:58:08.516Z,98155.41
2023-02-24T20:00:40.612Z,98151.16
2023-02-24T20:03:13.585Z,98136.61
2023-02-24T20:05:45.685Z,98144.29
2023-02-24T20:08:17.923Z,98142.63
2023-02-24T20:10:51.366Z,98140.00
2023-02-24T20:13:23.738Z,98141.77
2023-02-24T20:16:07.664Z,98136.48
2023-02-24T20:18:40.760Z,98133.91
2023-02-24T20:21:14.012Z,98133.91
2023-02-24T20:23:46.220Z,98130.45
2023-02-24T20:26:18.694Z,98131.23
2023-02-24T20:28:50.637Z,98132.03
2023-02-24T20:31:24.138Z,98119.20
2023-02-24T20:33:56.722Z,98120.88
2023-02-24T20:36:30.394Z,98107.95
2023-02-24T20:39:02.404Z,98111.29
2023-02-24T20:41:34.911Z,98104.36
2023-02-24T20:44:08.285Z,98106.99
2023-02-24T20:46:40.195Z,98104.70
2023-02-24T20:49:15.049Z,98104.36
2023-02-24T20:51:47.185Z,98102.69
2023-02-24T20:54:19.417Z,98101.84
2023-02-24T20:56:51.481Z,98092.39
2023-02-24T20:59:23.750Z,98089.76
2023-02-24T21:01:55.797Z,98097.41
2023-02-24T21:04:28.842Z,98093.95
2023-02-24T21:07:01.019Z,98083.66
2023-02-24T21:09:35.016Z,98085.38
2023-02-24T21:12:07.451Z,98088.80
2023-02-24T21:14:39.857Z,98087.85
2023-02-24T21:17:13.586Z,98083.57
2023-02-24T21:19:45.864Z,98092.15
2023-02-24T21:22:18.045Z,98085.14
2023-02-24T21:24:50.355Z,98083.41
2023-02-24T21:27:22.634Z,98080.89
2023-02-24T21:29:55.319Z,98086.84
2023-02-24T21:32:27.732Z,98071.38
2023-02-24T21:34:59.775Z,98074.73
2023-02-24T21:37:35.048Z,98077.30
2023-02-24T21:40:13.414Z,98078.16
2023-02-24T21:42:47.896Z,98072.81
2023-02-24T21:45:19.925Z,98066.79
2023-02-24T21:47:51.994Z,98062.45
2023-02-24T21:50:24.452Z,98068.46
2023-02-24T21:52:57.304Z,98067.61
2023-02-24T21:55:30.102Z,98064.98
2023-02-24T21:58:02.388Z,98067.34
2023-02-24T22:00:34.672Z,98060.48
2023-02-24T22:03:08.350Z,98055.42
2023-02-24T22:05:40.461Z,98056.23
2023-02-24T22:08:12.984Z,98051.88
2023-02-24T22:10:45.385Z,98063.86
2023-02-24T22:13:17.499Z,98056.95
2023-02-24T22:15:49.961Z,98056.08
2023-02-24T22:18:22.261Z,98059.31
2023-02-24T22:20:55.319Z,98044.86
2023-02-24T22:23:27.427Z,98037.98
2023-02-24T22:26:05.546Z,98037.08
2023-02-24T22:28:39.346Z,98042.13
2023-02-24T22:31:13.171Z,98033.54
2023-02-24T22:33:46.283Z,98036.01
2023-02-24T22:36:25.826Z,98030.91
2023-02-24T22:38:59.508Z,98023.06
2023-02-24T22:41:34.895Z,98023.94
2023-02-24T22:44:08.323Z,98017.91
2023-02-24T22:46:40.568Z,98017.91
2023-02-24T22:49:12.722Z,98017.00
2023-02-24T22:51:45.966Z,98011.91
2023-02-24T22:54:19.230Z,98012.75
2023-02-24T22:56:51.300Z,98009.27
2023-02-24T22:59:23.386Z,98004.94
2023-02-24T23:01:55.494Z,98011.80
2023-02-24T23:04:29.477Z,98000.62
2023-02-24T23:07:00.902Z,97999.66
2023-02-24T23:09:32.811Z,98000.75
2023-02-24T23:12:05.172Z,97995.25
2023-02-24T23:14:38.570Z,97993.60
2023-02-24T23:17:10.996Z,97991.88
2023-02-24T23:19:43.141Z,97990.97
2023-02-24T23:22:15.409Z,97987.57
2023-02-24T23:24:52.433Z,97988.39
2023-02-24T23:27:24.471Z,97982.36
2023-02-24T23:30:00.351Z,97978.93
2023-02-24T23:32:34.096Z,97973.77
2023-02-24T23:35:06.800Z,97984.80
2023-02-24T23:37:39.940Z,97971.96
2023-02-24T23:40:14.966Z,97970.99
2023-02-24T23:42:47.089Z,97964.96
2023-02-24T23:45:19.713Z,97963.20
2023-02-24T23:47:52.401Z,97959.80
2023-02-24T23:50:25.148Z,97954.59
2023-02-24T23:52:57.360Z,97951.16
2023-02-24T23:55:30.815Z,97949.44
2023-02-24T23:58:03.861Z,97942.46
